Hlavní strana
METAR-TAF:

METAR-TAF

Letiště :

Orsk, Rusko

zeměpisná šířka: 51-04-18N, zeměpisná délka: 058-35-48E, výška: 277 m

Aktuální stav počasí

Zpráva byla vytvořena před 40 minutami, v 22:00 UTC
Západoseverozápadní vítr 4 kt
Teplota -8°C
Vlhkost vzduchu 79%
Tlak 1035 hPa
Viditelnost 10 km a více
Žádná oblačnost pod 1500 m, nevyskytují se cumulonimby.

METAR: UWOR 222200Z 29002MPS CAVOK M08/M11 Q1035 R25/810155 NOSIG RMK QFE752/1003

Čas: 03:40 (22:40 UTC)

Předpověď počasí

Zpráva byla vytvořena před 2 hodinami a 45 minutami, v 19:55 UTC
Předpověď platná od 22 v 21 UTC do 23 v 06 UTC
Západní vítr 6 kt s nárazy do 16 kt
Viditelnost: 3100 m
Zataženo ve výšce 1100 ft
kouřmo
Dočasný
od 22 v 21 UTC do 23 v 06 UTC
vítr z různých směrů 2 kt
Viditelnost: 0400 m
ve výšce 400 ft
(slabý) sněhová zrna, mrznoucí mlha

TAF: UWOR 221955Z 2221/2306 27003G08MPS 3100 BR OVC011 TXM08/2306Z TNM12/2303Z TEMPO 2221/2306 VRB01MPS 0400 -SG FZFG VV004

Stav a předpovědi počasí z více než 4 000 letišť (zprávy METAR a TAF).

Červené a žluté tečky na mapě představují dostupné meteorologické stanice.

Když kurzor umístíte na tečku, zobrazí se název stanice.

Pak kliknutím zobrazíte stav a předpověď počasí.

Chcete-li změnit mapu, kliknutím na zelené tlačítko se znaménkem +mapu přiblížíte, kliknutím na zelené tlačítko se znaménkem – mapu oddálíte a kliknutím na zelené šipky přejdete na sousední mapy.


METAR-TAF: